sensor_id;sensor_type;location;lat;lon;timestamp;temperature;humidity
37002;DHT22;22913;51.910;8.374;2022-08-03T00:02:39;21.30;99.90
37002;DHT22;22913;51.910;8.374;2022-08-03T00:05:24;21.20;99.90
37002;DHT22;22913;51.910;8.374;2022-08-03T00:08:10;21.10;99.90
37002;DHT22;22913;51.910;8.374;2022-08-03T00:10:56;21.20;99.90
37002;DHT22;22913;51.910;8.374;2022-08-03T00:13:42;21.10;99.90
37002;DHT22;22913;51.910;8.374;2022-08-03T00:16:28;21.10;99.90
37002;DHT22;22913;51.910;8.374;2022-08-03T00:19:15;21.10;99.90
37002;DHT22;22913;51.910;8.374;2022-08-03T00:22:00;21.10;99.90
37002;DHT22;22913;51.910;8.374;2022-08-03T00:24:46;21.00;99.90
37002;DHT22;22913;51.910;8.374;2022-08-03T00:27:32;20.90;99.90
37002;DHT22;22913;51.910;8.374;2022-08-03T00:30:19;20.80;99.90
37002;DHT22;22913;51.910;8.374;2022-08-03T00:33:05;20.80;99.90
37002;DHT22;22913;51.910;8.374;2022-08-03T00:35:52;20.80;99.90
37002;DHT22;22913;51.910;8.374;2022-08-03T00:38:37;20.80;99.90
37002;DHT22;22913;51.910;8.374;2022-08-03T00:41:23;20.80;99.90
37002;DHT22;22913;51.910;8.374;2022-08-03T00:44:09;20.70;99.90
37002;DHT22;22913;51.910;8.374;2022-08-03T00:46:54;20.70;99.90
37002;DHT22;22913;51.910;8.374;2022-08-03T00:49:41;20.70;99.90
37002;DHT22;22913;51.910;8.374;2022-08-03T00:52:28;20.70;99.90
37002;DHT22;22913;51.910;8.374;2022-08-03T00:55:13;20.70;99.90
37002;DHT22;22913;51.910;8.374;2022-08-03T00:58:00;20.60;99.90
37002;DHT22;22913;51.910;8.374;2022-08-03T01:00:49;20.60;99.90
37002;DHT22;22913;51.910;8.374;2022-08-03T01:03:34;20.60;99.90
37002;DHT22;22913;51.910;8.374;2022-08-03T01:06:39;20.50;99.90
37002;DHT22;22913;51.910;8.374;2022-08-03T01:09:35;20.40;99.90
37002;DHT22;22913;51.910;8.374;2022-08-03T01:12:28;20.40;99.90
37002;DHT22;22913;51.910;8.374;2022-08-03T01:15:25;20.40;99.90
37002;DHT22;22913;51.910;8.374;2022-08-03T01:18:17;20.30;99.90
37002;DHT22;22913;51.910;8.374;2022-08-03T01:21:09;20.40;99.90
37002;DHT22;22913;51.910;8.374;2022-08-03T01:24:13;20.30;99.90
37002;DHT22;22913;51.910;8.374;2022-08-03T01:27:08;20.20;99.90
37002;DHT22;22913;51.910;8.374;2022-08-03T01:30:03;20.20;99.90
37002;DHT22;22913;51.910;8.374;2022-08-03T01:32:54;20.20;99.90
37002;DHT22;22913;51.910;8.374;2022-08-03T01:35:43;20.20;99.90
37002;DHT22;22913;51.910;8.374;2022-08-03T01:38:33;20.20;99.90
37002;DHT22;22913;51.910;8.374;2022-08-03T01:41:20;20.10;99.90
37002;DHT22;22913;51.910;8.374;2022-08-03T01:44:08;20.10;99.90
37002;DHT22;22913;51.910;8.374;2022-08-03T01:46:57;20.10;99.90
37002;DHT22;22913;51.910;8.374;2022-08-03T01:49:44;20.10;99.90
37002;DHT22;22913;51.910;8.374;2022-08-03T01:52:31;20.00;99.90
37002;DHT22;22913;51.910;8.374;2022-08-03T01:55:19;20.00;99.90
37002;DHT22;22913;51.910;8.374;2022-08-03T01:58:07;20.00;99.90
37002;DHT22;22913;51.910;8.374;2022-08-03T02:00:54;19.90;99.90
37002;DHT22;22913;51.910;8.374;2022-08-03T02:03:44;19.90;99.90
37002;DHT22;22913;51.910;8.374;2022-08-03T02:06:33;19.80;99.90
37002;DHT22;22913;51.910;8.374;2022-08-03T02:09:20;19.80;99.90
37002;DHT22;22913;51.910;8.374;2022-08-03T02:12:08;19.70;99.90
37002;DHT22;22913;51.910;8.374;2022-08-03T02:14:55;19.70;99.90
37002;DHT22;22913;51.910;8.374;2022-08-03T02:17:41;19.70;99.90
37002;DHT22;22913;51.910;8.374;2022-08-03T02:20:30;19.70;99.90
37002;DHT22;22913;51.910;8.374;2022-08-03T02:23:19;19.70;99.90
37002;DHT22;22913;51.910;8.374;2022-08-03T02:26:11;19.60;99.90
37002;DHT22;22913;51.910;8.374;2022-08-03T02:29:02;19.60;99.90
37002;DHT22;22913;51.910;8.374;2022-08-03T02:31:50;19.50;99.90
37002;DHT22;22913;51.910;8.374;2022-08-03T02:34:37;19.60;99.90
37002;DHT22;22913;51.910;8.374;2022-08-03T02:37:29;19.50;99.90
37002;DHT22;22913;51.910;8.374;2022-08-03T02:40:17;19.40;99.90
37002;DHT22;22913;51.910;8.374;2022-08-03T02:43:07;19.40;99.90
37002;DHT22;22913;51.910;8.374;2022-08-03T02:45:55;19.40;99.90
37002;DHT22;22913;51.910;8.374;2022-08-03T02:48:40;19.30;99.90
37002;DHT22;22913;51.910;8.374;2022-08-03T02:51:29;19.40;99.90
37002;DHT22;22913;51.910;8.374;2022-08-03T02:54:17;19.30;99.90
37002;DHT22;22913;51.910;8.374;2022-08-03T02:57:06;19.30;99.90
37002;DHT22;22913;51.910;8.374;2022-08-03T02:59:52;19.30;99.90
37002;DHT22;22913;51.910;8.374;2022-08-03T03:02:39;19.30;99.90
37002;DHT22;22913;51.910;8.374;2022-08-03T03:05:25;19.20;99.90
37002;DHT22;22913;51.910;8.374;2022-08-03T03:08:12;19.20;99.90
37002;DHT22;22913;51.910;8.374;2022-08-03T03:11:00;19.20;99.90
37002;DHT22;22913;51.910;8.374;2022-08-03T03:13:47;19.20;99.90
37002;DHT22;22913;51.910;8.374;2022-08-03T03:16:33;19.20;99.90
37002;DHT22;22913;51.910;8.374;2022-08-03T03:19:20;19.10;99.90
37002;DHT22;22913;51.910;8.374;2022-08-03T03:22:07;19.10;99.90
37002;DHT22;22913;51.910;8.374;2022-08-03T03:24:53;19.00;99.90
37002;DHT22;22913;51.910;8.374;2022-08-03T03:27:41;19.00;99.90
37002;DHT22;22913;51.910;8.374;2022-08-03T03:30:27;18.90;99.90
37002;DHT22;22913;51.910;8.374;2022-08-03T03:33:13;18.90;99.90
37002;DHT22;22913;51.910;8.374;2022-08-03T03:35:59;18.90;99.90
37002;DHT22;22913;51.910;8.374;2022-08-03T03:38:45;18.90;99.90
37002;DHT22;22913;51.910;8.374;2022-08-03T03:41:31;18.90;99.90
37002;DHT22;22913;51.910;8.374;2022-08-03T03:44:18;18.90;99.90
37002;DHT22;22913;51.910;8.374;2022-08-03T03:47:03;18.90;99.90
37002;DHT22;22913;51.910;8.374;2022-08-03T03:49:49;18.90;99.90
37002;DHT22;22913;51.910;8.374;2022-08-03T03:52:36;18.90;99.90
37002;DHT22;22913;51.910;8.374;2022-08-03T03:55:22;18.90;99.90
37002;DHT22;22913;51.910;8.374;2022-08-03T03:58:07;18.80;99.90
37002;DHT22;22913;51.910;8.374;2022-08-03T04:00:55;18.80;99.90
37002;DHT22;22913;51.910;8.374;2022-08-03T04:03:40;18.80;99.90
37002;DHT22;22913;51.910;8.374;2022-08-03T04:06:26;18.70;99.90
37002;DHT22;22913;51.910;8.374;2022-08-03T04:09:30;18.80;99.90
37002;DHT22;22913;51.910;8.374;2022-08-03T04:12:35;18.80;99.90
37002;DHT22;22913;51.910;8.374;2022-08-03T04:15:23;18.70;99.90
37002;DHT22;22913;51.910;8.374;2022-08-03T04:18:12;18.70;99.90
37002;DHT22;22913;51.910;8.374;2022-08-03T04:21:01;18.70;99.90
37002;DHT22;22913;51.910;8.374;2022-08-03T04:23:50;18.80;99.90
37002;DHT22;22913;51.910;8.374;2022-08-03T04:26:39;18.70;99.90
37002;DHT22;22913;51.910;8.374;2022-08-03T04:29:28;18.70;99.90
37002;DHT22;22913;51.910;8.374;2022-08-03T04:32:15;18.80;99.90
37002;DHT22;22913;51.910;8.374;2022-08-03T04:35:04;18.80;99.90
37002;DHT22;22913;51.910;8.374;2022-08-03T04:37:51;18.80;99.90
37002;DHT22;22913;51.910;8.374;2022-08-03T04:40:40;18.80;99.90
37002;DHT22;22913;51.910;8.374;2022-08-03T04:43:27;18.70;99.90
37002;DHT22;22913;51.910;8.374;2022-08-03T04:46:14;18.80;99.90
37002;DHT22;22913;51.910;8.374;2022-08-03T04:49:00;18.90;99.90
37002;DHT22;22913;51.910;8.374;2022-08-03T04:51:48;18.90;99.90
37002;DHT22;22913;51.910;8.374;2022-08-03T04:54:38;18.90;99.90
37002;DHT22;22913;51.910;8.374;2022-08-03T04:57:24;18.90;99.90
37002;DHT22;22913;51.910;8.374;2022-08-03T05:00:11;19.00;99.90
37002;DHT22;22913;51.910;8.374;2022-08-03T05:02:56;19.00;99.90
37002;DHT22;22913;51.910;8.374;2022-08-03T05:05:42;19.00;99.90
37002;DHT22;22913;51.910;8.374;2022-08-03T05:08:29;19.10;99.90
37002;DHT22;22913;51.910;8.374;2022-08-03T05:11:15;19.20;99.90
37002;DHT22;22913;51.910;8.374;2022-08-03T05:14:01;19.20;99.90
37002;DHT22;22913;51.910;8.374;2022-08-03T05:16:46;19.30;99.90
37002;DHT22;22913;51.910;8.374;2022-08-03T05:19:32;19.40;99.90
37002;DHT22;22913;51.910;8.374;2022-08-03T05:22:18;19.40;99.90
37002;DHT22;22913;51.910;8.374;2022-08-03T05:25:05;19.40;99.90
37002;DHT22;22913;51.910;8.374;2022-08-03T05:27:51;19.50;99.90
37002;DHT22;22913;51.910;8.374;2022-08-03T05:30:37;19.50;99.90
37002;DHT22;22913;51.910;8.374;2022-08-03T05:33:22;19.70;99.90
37002;DHT22;22913;51.910;8.374;2022-08-03T05:36:08;19.60;99.90
37002;DHT22;22913;51.910;8.374;2022-08-03T05:38:54;19.70;99.90
37002;DHT22;22913;51.910;8.374;2022-08-03T05:41:41;19.80;99.90
37002;DHT22;22913;51.910;8.374;2022-08-03T05:44:27;19.90;99.90
37002;DHT22;22913;51.910;8.374;2022-08-03T05:47:12;19.90;99.90
37002;DHT22;22913;51.910;8.374;2022-08-03T05:49:58;19.90;99.90
37002;DHT22;22913;51.910;8.374;2022-08-03T05:52:43;20.00;99.90
37002;DHT22;22913;51.910;8.374;2022-08-03T05:55:29;20.00;99.90
37002;DHT22;22913;51.910;8.374;2022-08-03T05:58:16;20.10;99.90
37002;DHT22;22913;51.910;8.374;2022-08-03T06:01:01;20.20;99.90
37002;DHT22;22913;51.910;8.374;2022-08-03T06:03:47;20.30;99.90
37002;DHT22;22913;51.910;8.374;2022-08-03T06:06:33;20.30;99.90
37002;DHT22;22913;51.910;8.374;2022-08-03T06:09:19;20.40;99.90
37002;DHT22;22913;51.910;8.374;2022-08-03T06:12:05;20.50;99.90
37002;DHT22;22913;51.910;8.374;2022-08-03T06:14:52;20.60;99.90
37002;DHT22;22913;51.910;8.374;2022-08-03T06:17:44;20.70;99.90
37002;DHT22;22913;51.910;8.374;2022-08-03T06:20:30;20.80;99.90
37002;DHT22;22913;51.910;8.374;2022-08-03T06:23:16;20.90;99.90
37002;DHT22;22913;51.910;8.374;2022-08-03T06:26:01;21.00;99.90
37002;DHT22;22913;51.910;8.374;2022-08-03T06:28:47;21.00;99.90
37002;DHT22;22913;51.910;8.374;2022-08-03T06:31:34;21.10;99.90
37002;DHT22;22913;51.910;8.374;2022-08-03T06:34:19;21.10;99.90
37002;DHT22;22913;51.910;8.374;2022-08-03T06:37:05;21.20;99.90
37002;DHT22;22913;51.910;8.374;2022-08-03T06:39:51;21.30;99.90
37002;DHT22;22913;51.910;8.374;2022-08-03T06:42:37;21.40;99.90
37002;DHT22;22913;51.910;8.374;2022-08-03T06:45:22;21.50;99.90
37002;DHT22;22913;51.910;8.374;2022-08-03T06:48:10;21.60;99.90
37002;DHT22;22913;51.910;8.374;2022-08-03T06:50:56;21.70;99.90
37002;DHT22;22913;51.910;8.374;2022-08-03T06:53:42;21.90;99.90
37002;DHT22;22913;51.910;8.374;2022-08-03T06:56:28;21.90;99.90
37002;DHT22;22913;51.910;8.374;2022-08-03T06:59:14;22.00;99.90
37002;DHT22;22913;51.910;8.374;2022-08-03T07:01:59;22.10;99.90
37002;DHT22;22913;51.910;8.374;2022-08-03T07:04:46;22.20;99.90
37002;DHT22;22913;51.910;8.374;2022-08-03T07:07:31;22.20;99.90
37002;DHT22;22913;51.910;8.374;2022-08-03T07:10:17;22.40;99.90
37002;DHT22;22913;51.910;8.374;2022-08-03T07:13:03;22.40;99.90
37002;DHT22;22913;51.910;8.374;2022-08-03T07:15:48;22.50;99.90
37002;DHT22;22913;51.910;8.374;2022-08-03T07:18:37;22.60;99.90
37002;DHT22;22913;51.910;8.374;2022-08-03T07:21:24;22.70;99.90
37002;DHT22;22913;51.910;8.374;2022-08-03T07:24:09;22.90;99.90
37002;DHT22;22913;51.910;8.374;2022-08-03T07:26:55;23.10;99.90
37002;DHT22;22913;51.910;8.374;2022-08-03T07:29:41;23.10;99.90
37002;DHT22;22913;51.910;8.374;2022-08-03T07:32:27;23.20;99.90
37002;DHT22;22913;51.910;8.374;2022-08-03T07:35:14;23.30;99.90
37002;DHT22;22913;51.910;8.374;2022-08-03T07:38:01;23.40;99.90
37002;DHT22;22913;51.910;8.374;2022-08-03T07:40:46;23.60;99.90
37002;DHT22;22913;51.910;8.374;2022-08-03T07:43:32;23.70;99.90
37002;DHT22;22913;51.910;8.374;2022-08-03T07:46:17;23.80;99.90
37002;DHT22;22913;51.910;8.374;2022-08-03T07:49:03;23.80;99.90
37002;DHT22;22913;51.910;8.374;2022-08-03T07:51:49;23.90;99.90
37002;DHT22;22913;51.910;8.374;2022-08-03T07:54:56;24.10;99.90
37002;DHT22;22913;51.910;8.374;2022-08-03T07:57:42;24.20;99.90
37002;DHT22;22913;51.910;8.374;2022-08-03T08:00:28;24.40;99.90
37002;DHT22;22913;51.910;8.374;2022-08-03T08:03:14;24.40;99.90
37002;DHT22;22913;51.910;8.374;2022-08-03T08:05:59;24.70;99.90
37002;DHT22;22913;51.910;8.374;2022-08-03T08:08:45;24.80;99.90
37002;DHT22;22913;51.910;8.374;2022-08-03T08:11:32;24.90;99.90
37002;DHT22;22913;51.910;8.374;2022-08-03T08:14:17;24.90;99.90
37002;DHT22;22913;51.910;8.374;2022-08-03T08:17:03;25.10;99.90
37002;DHT22;22913;51.910;8.374;2022-08-03T08:19:49;25.20;99.90
37002;DHT22;22913;51.910;8.374;2022-08-03T08:22:34;25.20;99.90
37002;DHT22;22913;51.910;8.374;2022-08-03T08:25:20;25.30;99.90
37002;DHT22;22913;51.910;8.374;2022-08-03T08:28:07;25.40;99.90
37002;DHT22;22913;51.910;8.374;2022-08-03T08:30:52;25.40;99.90
37002;DHT22;22913;51.910;8.374;2022-08-03T08:33:38;25.60;99.90
37002;DHT22;22913;51.910;8.374;2022-08-03T08:36:24;25.70;99.90
37002;DHT22;22913;51.910;8.374;2022-08-03T08:39:09;25.90;99.90
37002;DHT22;22913;51.910;8.374;2022-08-03T08:41:55;26.00;99.90
37002;DHT22;22913;51.910;8.374;2022-08-03T08:44:42;26.10;99.90
37002;DHT22;22913;51.910;8.374;2022-08-03T08:47:30;26.20;99.90
37002;DHT22;22913;51.910;8.374;2022-08-03T08:50:18;26.30;99.90
37002;DHT22;22913;51.910;8.374;2022-08-03T08:53:06;26.30;99.90
37002;DHT22;22913;51.910;8.374;2022-08-03T08:55:54;26.40;99.90
37002;DHT22;22913;51.910;8.374;2022-08-03T08:58:46;26.40;99.90
37002;DHT22;22913;51.910;8.374;2022-08-03T09:01:34;26.50;99.90
37002;DHT22;22913;51.910;8.374;2022-08-03T09:04:20;26.70;99.90
37002;DHT22;22913;51.910;8.374;2022-08-03T09:07:06;26.80;99.90
37002;DHT22;22913;51.910;8.374;2022-08-03T09:09:52;27.00;99.90
37002;DHT22;22913;51.910;8.374;2022-08-03T09:12:38;27.20;99.90
37002;DHT22;22913;51.910;8.374;2022-08-03T09:15:27;27.20;99.90
37002;DHT22;22913;51.910;8.374;2022-08-03T09:18:27;27.30;99.90
37002;DHT22;22913;51.910;8.374;2022-08-03T09:21:15;27.40;99.90
37002;DHT22;22913;51.910;8.374;2022-08-03T09:24:03;27.60;99.90
37002;DHT22;22913;51.910;8.374;2022-08-03T09:26:50;27.60;99.90
37002;DHT22;22913;51.910;8.374;2022-08-03T09:29:37;27.70;99.90
37002;DHT22;22913;51.910;8.374;2022-08-03T09:32:24;27.70;99.90
37002;DHT22;22913;51.910;8.374;2022-08-03T09:35:11;27.80;99.90
37002;DHT22;22913;51.910;8.374;2022-08-03T09:38:11;28.00;99.90
37002;DHT22;22913;51.910;8.374;2022-08-03T09:40:57;28.10;99.90
37002;DHT22;22913;51.910;8.374;2022-08-03T09:43:45;28.30;99.90
37002;DHT22;22913;51.910;8.374;2022-08-03T09:46:31;28.40;99.90
37002;DHT22;22913;51.910;8.374;2022-08-03T09:49:17;28.50;99.90
37002;DHT22;22913;51.910;8.374;2022-08-03T09:52:13;28.60;99.90
37002;DHT22;22913;51.910;8.374;2022-08-03T09:55:00;28.80;99.90
37002;DHT22;22913;51.910;8.374;2022-08-03T09:57:46;28.90;99.90
37002;DHT22;22913;51.910;8.374;2022-08-03T10:00:32;29.00;99.90
37002;DHT22;22913;51.910;8.374;2022-08-03T10:03:38;29.10;99.90
37002;DHT22;22913;51.910;8.374;2022-08-03T10:06:24;29.30;99.90
37002;DHT22;22913;51.910;8.374;2022-08-03T10:09:13;29.40;99.90
37002;DHT22;22913;51.910;8.374;2022-08-03T10:12:07;29.50;99.90
37002;DHT22;22913;51.910;8.374;2022-08-03T10:14:53;29.70;99.90
37002;DHT22;22913;51.910;8.374;2022-08-03T10:17:39;29.80;99.90
37002;DHT22;22913;51.910;8.374;2022-08-03T10:20:25;29.80;99.90
37002;DHT22;22913;51.910;8.374;2022-08-03T10:23:13;30.00;99.90
37002;DHT22;22913;51.910;8.374;2022-08-03T10:26:03;30.10;99.90
37002;DHT22;22913;51.910;8.374;2022-08-03T10:28:52;30.20;99.90
37002;DHT22;22913;51.910;8.374;2022-08-03T10:31:39;30.40;99.90
37002;DHT22;22913;51.910;8.374;2022-08-03T10:34:26;30.40;99.90
37002;DHT22;22913;51.910;8.374;2022-08-03T10:37:15;30.50;99.90
37002;DHT22;22913;51.910;8.374;2022-08-03T10:40:02;30.60;99.90
37002;DHT22;22913;51.910;8.374;2022-08-03T10:42:52;30.90;99.90
37002;DHT22;22913;51.910;8.374;2022-08-03T10:45:40;31.00;99.90
37002;DHT22;22913;51.910;8.374;2022-08-03T10:48:26;31.10;99.90
37002;DHT22;22913;51.910;8.374;2022-08-03T10:51:12;31.30;99.90
37002;DHT22;22913;51.910;8.374;2022-08-03T10:53:59;31.50;99.90
37002;DHT22;22913;51.910;8.374;2022-08-03T10:56:44;31.70;99.90
37002;DHT22;22913;51.910;8.374;2022-08-03T11:00:07;31.90;99.90
37002;DHT22;22913;51.910;8.374;2022-08-03T11:03:15;32.40;99.90
37002;DHT22;22913;51.910;8.374;2022-08-03T11:06:15;32.70;99.90
37002;DHT22;22913;51.910;8.374;2022-08-03T11:09:14;32.90;99.90
37002;DHT22;22913;51.910;8.374;2022-08-03T11:12:20;32.80;99.90
37002;DHT22;22913;51.910;8.374;2022-08-03T11:15:08;32.70;99.90
37002;DHT22;22913;51.910;8.374;2022-08-03T11:18:08;32.70;99.90
37002;DHT22;22913;51.910;8.374;2022-08-03T11:20:55;32.80;99.90
37002;DHT22;22913;51.910;8.374;2022-08-03T11:23:44;33.00;99.90
37002;DHT22;22913;51.910;8.374;2022-08-03T11:26:30;33.20;99.90
37002;DHT22;22913;51.910;8.374;2022-08-03T11:29:29;33.30;99.90
37002;DHT22;22913;51.910;8.374;2022-08-03T11:35:59;33.30;99.90
37002;DHT22;22913;51.910;8.374;2022-08-03T11:39:11;33.50;99.90
37002;DHT22;22913;51.910;8.374;2022-08-03T11:41:56;33.70;99.90
37002;DHT22;22913;51.910;8.374;2022-08-03T11:44:42;33.80;99.90
37002;DHT22;22913;51.910;8.374;2022-08-03T11:47:28;34.10;99.90
37002;DHT22;22913;51.910;8.374;2022-08-03T11:50:14;34.30;99.90
37002;DHT22;22913;51.910;8.374;2022-08-03T11:53:04;34.70;99.90
37002;DHT22;22913;51.910;8.374;2022-08-03T11:55:51;35.00;99.90
37002;DHT22;22913;51.910;8.374;2022-08-03T11:58:36;35.40;99.90
37002;DHT22;22913;51.910;8.374;2022-08-03T12:01:23;35.60;99.90
37002;DHT22;22913;51.910;8.374;2022-08-03T12:04:09;35.80;99.90
37002;DHT22;22913;51.910;8.374;2022-08-03T12:06:58;36.00;99.90
37002;DHT22;22913;51.910;8.374;2022-08-03T12:10:05;35.80;99.90
37002;DHT22;22913;51.910;8.374;2022-08-03T12:12:55;36.00;99.90
37002;DHT22;22913;51.910;8.374;2022-08-03T12:15:41;36.00;99.90
37002;DHT22;22913;51.910;8.374;2022-08-03T12:18:27;36.20;99.90
37002;DHT22;22913;51.910;8.374;2022-08-03T12:21:13;36.40;99.90
37002;DHT22;22913;51.910;8.374;2022-08-03T12:24:01;36.60;99.90
37002;DHT22;22913;51.910;8.374;2022-08-03T12:26:50;36.70;99.90
37002;DHT22;22913;51.910;8.374;2022-08-03T12:29:35;36.50;99.90
37002;DHT22;22913;51.910;8.374;2022-08-03T12:32:21;36.70;99.90
37002;DHT22;22913;51.910;8.374;2022-08-03T12:35:07;37.10;99.90
37002;DHT22;22913;51.910;8.374;2022-08-03T12:37:53;37.30;99.90
37002;DHT22;22913;51.910;8.374;2022-08-03T12:40:40;37.60;99.90
37002;DHT22;22913;51.910;8.374;2022-08-03T12:43:27;37.90;99.90
37002;DHT22;22913;51.910;8.374;2022-08-03T12:46:14;38.30;99.90
37002;DHT22;22913;51.910;8.374;2022-08-03T12:49:05;38.40;99.50
37002;DHT22;22913;51.910;8.374;2022-08-03T12:52:00;38.50;99.40
37002;DHT22;22913;51.910;8.374;2022-08-03T12:54:53;38.90;98.80
37002;DHT22;22913;51.910;8.374;2022-08-03T12:57:39;39.10;98.10
37002;DHT22;22913;51.910;8.374;2022-08-03T13:00:27;39.60;96.80
37002;DHT22;22913;51.910;8.374;2022-08-03T13:03:13;39.90;96.00
37002;DHT22;22913;51.910;8.374;2022-08-03T13:05:58;40.20;95.20
37002;DHT22;22913;51.910;8.374;2022-08-03T13:08:44;40.40;94.70
37002;DHT22;22913;51.910;8.374;2022-08-03T13:11:30;40.50;93.70
37002;DHT22;22913;51.910;8.374;2022-08-03T13:14:16;40.70;93.10
37002;DHT22;22913;51.910;8.374;2022-08-03T13:17:03;41.00;92.80
37002;DHT22;22913;51.910;8.374;2022-08-03T13:19:50;41.40;91.60
37002;DHT22;22913;51.910;8.374;2022-08-03T13:22:36;41.70;90.90
37002;DHT22;22913;51.910;8.374;2022-08-03T13:25:22;41.30;90.20
37002;DHT22;22913;51.910;8.374;2022-08-03T13:28:07;41.30;89.30
37002;DHT22;22913;51.910;8.374;2022-08-03T13:30:53;41.20;89.20
37002;DHT22;22913;51.910;8.374;2022-08-03T13:33:40;41.30;87.30
37002;DHT22;22913;51.910;8.374;2022-08-03T13:36:25;40.80;87.30
37002;DHT22;22913;51.910;8.374;2022-08-03T13:39:11;40.40;87.10
37002;DHT22;22913;51.910;8.374;2022-08-03T13:41:57;40.30;88.20
37002;DHT22;22913;51.910;8.374;2022-08-03T13:44:42;40.50;87.80
37002;DHT22;22913;51.910;8.374;2022-08-03T13:47:28;40.80;86.70
37002;DHT22;22913;51.910;8.374;2022-08-03T13:50:15;41.30;87.20
37002;DHT22;22913;51.910;8.374;2022-08-03T13:53:01;41.90;85.20
37002;DHT22;22913;51.910;8.374;2022-08-03T13:55:46;42.30;84.20
37002;DHT22;22913;51.910;8.374;2022-08-03T13:58:32;42.80;83.60
37002;DHT22;22913;51.910;8.374;2022-08-03T14:01:18;42.80;81.30
37002;DHT22;22913;51.910;8.374;2022-08-03T14:04:03;42.60;80.70
37002;DHT22;22913;51.910;8.374;2022-08-03T14:06:50;42.30;80.60
37002;DHT22;22913;51.910;8.374;2022-08-03T14:09:36;42.00;81.20
37002;DHT22;22913;51.910;8.374;2022-08-03T14:12:22;41.90;82.40
37002;DHT22;22913;51.910;8.374;2022-08-03T14:15:08;41.90;80.50
37002;DHT22;22913;51.910;8.374;2022-08-03T14:17:56;42.10;80.40
37002;DHT22;22913;51.910;8.374;2022-08-03T14:20:41;42.30;80.00
37002;DHT22;22913;51.910;8.374;2022-08-03T14:23:28;42.20;79.20
37002;DHT22;22913;51.910;8.374;2022-08-03T14:26:13;42.50;78.30
37002;DHT22;22913;51.910;8.374;2022-08-03T14:29:01;42.40;79.10
37002;DHT22;22913;51.910;8.374;2022-08-03T14:31:47;42.00;77.20
37002;DHT22;22913;51.910;8.374;2022-08-03T14:34:33;41.20;78.40
37002;DHT22;22913;51.910;8.374;2022-08-03T14:37:19;40.80;78.60
37002;DHT22;22913;51.910;8.374;2022-08-03T14:40:07;41.00;78.50
37002;DHT22;22913;51.910;8.374;2022-08-03T14:42:52;41.20;78.40
37002;DHT22;22913;51.910;8.374;2022-08-03T14:45:38;41.70;78.00
37002;DHT22;22913;51.910;8.374;2022-08-03T14:48:24;42.40;77.70
37002;DHT22;22913;51.910;8.374;2022-08-03T14:51:10;42.90;76.80
37002;DHT22;22913;51.910;8.374;2022-08-03T14:53:56;42.70;76.10
37002;DHT22;22913;51.910;8.374;2022-08-03T14:56:43;42.30;75.50
37002;DHT22;22913;51.910;8.374;2022-08-03T14:59:28;42.00;75.30
37002;DHT22;22913;51.910;8.374;2022-08-03T15:02:14;42.10;74.80
37002;DHT22;22913;51.910;8.374;2022-08-03T15:05:00;42.30;75.70
37002;DHT22;22913;51.910;8.374;2022-08-03T15:07:45;41.90;74.40
37002;DHT22;22913;51.910;8.374;2022-08-03T15:10:31;41.80;75.10
37002;DHT22;22913;51.910;8.374;2022-08-03T15:13:18;41.80;74.70
37002;DHT22;22913;51.910;8.374;2022-08-03T15:16:04;41.40;75.50
37002;DHT22;22913;51.910;8.374;2022-08-03T15:18:51;41.30;75.30
37002;DHT22;22913;51.910;8.374;2022-08-03T15:21:37;41.20;75.90
37002;DHT22;22913;51.910;8.374;2022-08-03T15:24:23;40.70;74.90
37002;DHT22;22913;51.910;8.374;2022-08-03T15:27:09;39.80;76.40
37002;DHT22;22913;51.910;8.374;2022-08-03T15:29:56;39.30;77.90
37002;DHT22;22913;51.910;8.374;2022-08-03T15:32:41;39.10;77.80
37002;DHT22;22913;51.910;8.374;2022-08-03T15:35:27;38.80;79.40
37002;DHT22;22913;51.910;8.374;2022-08-03T15:38:13;38.70;79.90
37002;DHT22;22913;51.910;8.374;2022-08-03T15:40:59;38.30;80.10
37002;DHT22;22913;51.910;8.374;2022-08-03T15:43:45;38.20;82.30
37002;DHT22;22913;51.910;8.374;2022-08-03T15:46:32;38.30;82.20
37002;DHT22;22913;51.910;8.374;2022-08-03T15:49:17;38.40;82.60
37002;DHT22;22913;51.910;8.374;2022-08-03T15:52:04;38.50;81.60
37002;DHT22;22913;51.910;8.374;2022-08-03T15:54:49;38.70;81.40
37002;DHT22;22913;51.910;8.374;2022-08-03T15:57:35;39.10;80.60
37002;DHT22;22913;51.910;8.374;2022-08-03T16:00:22;39.20;81.70
37002;DHT22;22913;51.910;8.374;2022-08-03T16:03:09;39.50;81.60
37002;DHT22;22913;51.910;8.374;2022-08-03T16:05:55;40.00;79.30
37002;DHT22;22913;51.910;8.374;2022-08-03T16:08:40;40.40;78.70
37002;DHT22;22913;51.910;8.374;2022-08-03T16:11:26;40.80;78.40
37002;DHT22;22913;51.910;8.374;2022-08-03T16:14:12;40.70;77.20
37002;DHT22;22913;51.910;8.374;2022-08-03T16:16:58;40.70;76.70
37002;DHT22;22913;51.910;8.374;2022-08-03T16:19:45;40.80;76.50
37002;DHT22;22913;51.910;8.374;2022-08-03T16:22:30;40.50;76.60
37002;DHT22;22913;51.910;8.374;2022-08-03T16:25:17;40.20;76.90
37002;DHT22;22913;51.910;8.374;2022-08-03T16:28:03;39.60;77.50
37002;DHT22;22913;51.910;8.374;2022-08-03T16:30:48;39.20;78.30
37002;DHT22;22913;51.910;8.374;2022-08-03T16:33:34;38.80;77.80
37002;DHT22;22913;51.910;8.374;2022-08-03T16:36:21;38.40;77.90
37002;DHT22;22913;51.910;8.374;2022-08-03T16:39:07;38.20;78.60
37002;DHT22;22913;51.910;8.374;2022-08-03T16:41:53;38.30;78.50
37002;DHT22;22913;51.910;8.374;2022-08-03T16:44:38;38.40;78.40
37002;DHT22;22913;51.910;8.374;2022-08-03T16:47:24;38.50;78.10
37002;DHT22;22913;51.910;8.374;2022-08-03T16:50:10;38.50;78.30
37002;DHT22;22913;51.910;8.374;2022-08-03T16:52:57;38.40;79.20
37002;DHT22;22913;51.910;8.374;2022-08-03T16:55:42;38.30;79.50
37002;DHT22;22913;51.910;8.374;2022-08-03T16:58:29;38.10;80.50
37002;DHT22;22913;51.910;8.374;2022-08-03T17:01:15;38.20;79.80
37002;DHT22;22913;51.910;8.374;2022-08-03T17:04:01;38.10;79.30
37002;DHT22;22913;51.910;8.374;2022-08-03T17:06:47;38.00;80.20
37002;DHT22;22913;51.910;8.374;2022-08-03T17:09:34;38.10;80.10
37002;DHT22;22913;51.910;8.374;2022-08-03T17:12:19;38.10;79.80
37002;DHT22;22913;51.910;8.374;2022-08-03T17:15:06;38.10;80.30
37002;DHT22;22913;51.910;8.374;2022-08-03T17:18:00;38.00;80.60
37002;DHT22;22913;51.910;8.374;2022-08-03T17:20:48;37.90;80.60
37002;DHT22;22913;51.910;8.374;2022-08-03T17:23:39;37.60;81.80
37002;DHT22;22913;51.910;8.374;2022-08-03T17:26:30;37.40;82.10
37002;DHT22;22913;51.910;8.374;2022-08-03T17:29:20;37.40;82.40
37002;DHT22;22913;51.910;8.374;2022-08-03T17:32:06;37.30;82.90
37002;DHT22;22913;51.910;8.374;2022-08-03T17:34:53;37.10;83.70
37002;DHT22;22913;51.910;8.374;2022-08-03T17:37:40;37.00;84.30
37002;DHT22;22913;51.910;8.374;2022-08-03T17:40:26;36.80;84.50
37002;DHT22;22913;51.910;8.374;2022-08-03T17:43:14;36.70;84.70